createdAt,value
2023-02-07T00:00:06.955Z,7.50
2023-02-07T00:01:39.771Z,4.47
2023-02-07T00:03:11.628Z,5.20
2023-02-07T00:04:44.391Z,5.53
2023-02-07T00:06:19.600Z,4.22
2023-02-07T00:07:52.347Z,3.65
2023-02-07T00:09:26.374Z,4.82
2023-02-07T00:10:59.074Z,3.33
2023-02-07T00:12:31.850Z,4.00
2023-02-07T00:14:04.670Z,5.78
2023-02-07T00:15:37.687Z,3.88
2023-02-07T00:17:09.674Z,4.15
2023-02-07T00:18:42.554Z,3.72
2023-02-07T00:20:17.333Z,4.28
2023-02-07T00:21:50.021Z,4.57
2023-02-07T00:23:22.686Z,4.55
2023-02-07T00:24:56.726Z,4.13
2023-02-07T00:26:30.036Z,3.88
2023-02-07T00:28:02.847Z,5.80
2023-02-07T00:29:35.640Z,4.47
2023-02-07T00:31:10.213Z,3.47
2023-02-07T00:32:43.224Z,3.92
2023-02-07T00:34:16.811Z,3.78
2023-02-07T00:35:57.434Z,3.63
2023-02-07T00:37:30.318Z,4.32
2023-02-07T00:39:06.272Z,4.57
2023-02-07T00:40:40.277Z,3.58
2023-02-07T00:42:13.022Z,4.03
2023-02-07T00:43:47.318Z,3.50
2023-02-07T00:45:20.009Z,3.83
2023-02-07T00:46:52.748Z,3.80
2023-02-07T00:48:24.522Z,4.80
2023-02-07T00:49:57.209Z,3.60
2023-02-07T00:51:29.010Z,4.07
2023-02-07T00:53:01.733Z,5.07
2023-02-07T00:54:34.642Z,2.90
2023-02-07T00:56:09.349Z,3.95
2023-02-07T00:57:42.096Z,3.38
2023-02-07T00:59:14.801Z,3.40
2023-02-07T01:00:47.676Z,4.13
2023-02-07T01:02:20.441Z,3.30
2023-02-07T01:03:53.191Z,4.47
2023-02-07T01:05:25.931Z,3.88
2023-02-07T01:06:58.656Z,3.60
2023-02-07T01:08:31.440Z,4.18
2023-02-07T01:10:05.025Z,3.30
2023-02-07T01:11:39.097Z,3.67
2023-02-07T01:13:12.925Z,3.90
2023-02-07T01:14:45.613Z,3.17
2023-02-07T01:16:19.395Z,3.58
2023-02-07T01:17:52.176Z,3.42
2023-02-07T01:19:24.927Z,4.30
2023-02-07T01:20:57.047Z,4.35
2023-02-07T01:22:29.824Z,3.35
2023-02-07T01:24:02.610Z,3.17
2023-02-07T01:25:35.798Z,3.47
2023-02-07T01:27:11.848Z,3.30
2023-02-07T01:28:43.747Z,3.28
2023-02-07T01:30:16.467Z,3.63
2023-02-07T01:31:49.216Z,3.53
2023-02-07T01:33:20.980Z,3.30
2023-02-07T01:34:53.662Z,4.50
2023-02-07T01:36:27.620Z,2.90
2023-02-07T01:38:02.560Z,3.70
2023-02-07T01:39:35.319Z,3.35
2023-02-07T01:41:07.909Z,2.70
2023-02-07T01:42:41.986Z,3.25
2023-02-07T01:44:56.531Z,3.00
2023-02-07T01:46:30.990Z,3.70
2023-02-07T01:48:05.926Z,3.03
2023-02-07T01:49:38.969Z,2.80
2023-02-07T01:51:11.961Z,3.17
2023-02-07T01:52:45.072Z,3.08
2023-02-07T01:54:19.551Z,3.42
2023-02-07T01:55:57.952Z,3.63
2023-02-07T01:57:31.306Z,3.15
2023-02-07T01:59:07.165Z,3.22
2023-02-07T02:00:39.211Z,3.15
2023-02-07T02:02:13.407Z,3.40
2023-02-07T02:03:50.112Z,4.50
2023-02-07T02:05:23.440Z,3.60
2023-02-07T02:06:57.049Z,3.75
2023-02-07T02:08:29.951Z,3.33
2023-02-07T02:10:01.994Z,4.20
2023-02-07T02:12:05.367Z,3.50
2023-02-07T02:13:46.308Z,3.30
2023-02-07T02:15:36.806Z,4.53
2023-02-07T02:17:17.294Z,3.20
2023-02-07T02:19:02.125Z,3.40
2023-02-07T02:20:58.455Z,3.60
2023-02-07T02:22:56.418Z,3.80
2023-02-07T02:24:53.541Z,3.40
2023-02-07T02:26:42.905Z,3.90
2023-02-07T02:28:44.951Z,3.55
2023-02-07T02:30:51.310Z,4.10
2023-02-07T02:33:00.815Z,4.38
2023-02-07T02:34:42.442Z,3.70
2023-02-07T02:36:23.794Z,3.83
2023-02-07T02:38:01.332Z,4.07
2023-02-07T02:39:41.622Z,3.85
2023-02-07T02:41:18.711Z,3.63
2023-02-07T02:42:54.062Z,4.03
2023-02-07T02:44:33.742Z,4.40
2023-02-07T02:46:12.175Z,3.55
2023-02-07T02:47:48.924Z,4.82
2023-02-07T02:49:22.776Z,4.47
2023-02-07T02:50:57.441Z,4.65
2023-02-07T02:52:48.560Z,4.25
2023-02-07T02:54:31.926Z,4.70
2023-02-07T02:56:53.017Z,3.88
2023-02-07T02:58:38.236Z,4.18
2023-02-07T03:00:22.578Z,5.35
2023-02-07T03:02:04.529Z,3.72
2023-02-07T03:03:59.033Z,4.30
2023-02-07T03:05:44.729Z,3.78
2023-02-07T03:07:39.253Z,3.72
2023-02-07T03:09:25.586Z,3.90
2023-02-07T03:11:06.043Z,3.88
2023-02-07T03:12:45.029Z,4.55
2023-02-07T03:14:24.751Z,4.45
2023-02-07T03:16:10.852Z,4.25
2023-02-07T03:17:46.328Z,4.90
2023-02-07T03:19:26.066Z,4.50
2023-02-07T03:21:04.353Z,5.97
2023-02-07T03:22:39.355Z,4.43
2023-02-07T03:24:16.075Z,3.80
2023-02-07T03:25:51.826Z,4.20
2023-02-07T03:27:26.251Z,4.95
2023-02-07T03:29:00.330Z,4.38
2023-02-07T03:30:35.428Z,5.63
2023-02-07T03:32:09.271Z,4.97
2023-02-07T03:33:44.481Z,5.05
2023-02-07T03:35:23.480Z,4.65
2023-02-07T03:37:00.423Z,4.43
2023-02-07T03:38:35.102Z,5.03
2023-02-07T03:40:09.649Z,4.85
2023-02-07T03:41:45.126Z,4.78
2023-02-07T03:43:23.366Z,4.88
2023-02-07T03:44:58.193Z,5.65
2023-02-07T03:46:35.286Z,4.53
2023-02-07T03:48:08.043Z,4.82
2023-02-07T03:49:39.796Z,5.25
2023-02-07T03:51:12.495Z,5.25
2023-02-07T03:52:45.197Z,5.50
2023-02-07T03:54:19.488Z,5.72
2023-02-07T03:55:53.161Z,5.05
2023-02-07T03:57:25.875Z,4.82
2023-02-07T03:58:58.574Z,5.20
2023-02-07T04:00:30.333Z,6.13
2023-02-07T04:02:03.278Z,5.80
2023-02-07T04:03:36.106Z,5.10
2023-02-07T04:05:09.539Z,5.68
2023-02-07T04:06:41.298Z,4.70
2023-02-07T04:08:13.989Z,5.57
2023-02-07T04:09:48.046Z,5.88
2023-02-07T04:11:20.760Z,5.53
2023-02-07T04:12:53.441Z,6.30
2023-02-07T04:14:25.469Z,5.78
2023-02-07T04:15:58.313Z,6.63
2023-02-07T04:17:31.561Z,5.88
2023-02-07T04:19:03.387Z,6.78
2023-02-07T04:20:36.125Z,6.15
2023-02-07T04:22:10.909Z,7.55
2023-02-07T04:23:43.615Z,6.25
2023-02-07T04:25:18.594Z,7.60
2023-02-07T04:26:51.300Z,7.60
2023-02-07T04:28:23.069Z,7.88
2023-02-07T04:29:56.244Z,9.07
2023-02-07T04:31:28.168Z,7.15
2023-02-07T04:33:00.915Z,7.32
2023-02-07T04:34:33.611Z,7.70
2023-02-07T04:36:07.114Z,9.57
2023-02-07T04:37:40.585Z,8.02
2023-02-07T04:39:12.351Z,7.35
2023-02-07T04:40:46.411Z,6.75
2023-02-07T04:42:19.142Z,7.68
2023-02-07T04:43:51.862Z,8.48
2023-02-07T04:45:24.618Z,8.20
2023-02-07T04:46:57.341Z,7.22
2023-02-07T04:48:30.245Z,7.88
2023-02-07T04:50:02.930Z,9.32
2023-02-07T04:51:35.628Z,8.73
2023-02-07T04:53:08.332Z,8.13
2023-02-07T04:54:41.291Z,9.15
2023-02-07T04:56:15.346Z,8.32
2023-02-07T04:57:48.000Z,8.27
2023-02-07T04:59:20.700Z,9.18
2023-02-07T05:00:53.918Z,10.65
2023-02-07T05:02:26.717Z,10.50
2023-02-07T05:03:59.464Z,9.35
2023-02-07T05:05:32.174Z,9.10
2023-02-07T05:07:04.862Z,8.60
2023-02-07T05:08:38.279Z,10.07
2023-02-07T05:10:11.206Z,9.15
2023-02-07T05:11:45.542Z,8.32
2023-02-07T05:13:18.250Z,9.55
2023-02-07T05:14:50.961Z,9.38
2023-02-07T05:16:23.692Z,8.73
2023-02-07T05:17:56.887Z,9.38
2023-02-07T05:19:30.029Z,10.25
2023-02-07T05:21:02.751Z,10.52
2023-02-07T05:22:35.449Z,9.60
2023-02-07T05:24:08.574Z,9.13
2023-02-07T05:25:42.920Z,9.25
2023-02-07T05:27:16.944Z,10.98
2023-02-07T05:28:49.627Z,11.38
2023-02-07T05:30:21.582Z,10.23
2023-02-07T05:32:11.949Z,11.98
2023-02-07T05:33:44.619Z,10.73
2023-02-07T05:35:16.506Z,13.70
2023-02-07T05:36:49.192Z,11.35
2023-02-07T05:38:22.408Z,12.95
2023-02-07T05:39:55.102Z,14.55
2023-02-07T05:41:27.784Z,13.43
2023-02-07T05:43:00.865Z,12.15
2023-02-07T05:44:33.545Z,14.20
2023-02-07T05:46:06.490Z,12.63
2023-02-07T05:47:39.246Z,13.05
2023-02-07T05:49:11.949Z,13.38
2023-02-07T05:50:44.659Z,13.05
2023-02-07T05:52:17.395Z,13.23
2023-02-07T05:53:50.088Z,13.43
2023-02-07T05:55:22.772Z,14.32
2023-02-07T05:56:55.471Z,13.60
2023-02-07T05:58:29.514Z,16.38
2023-02-07T06:00:02.209Z,15.35
2023-02-07T06:01:37.320Z,14.75
2023-02-07T06:03:10.144Z,15.75
2023-02-07T06:04:42.873Z,14.32
2023-02-07T06:06:15.651Z,17.38
2023-02-07T06:07:48.426Z,14.45
2023-02-07T06:09:21.608Z,15.35
2023-02-07T06:10:54.288Z,14.88
2023-02-07T06:12:27.218Z,16.83
2023-02-07T06:14:01.290Z,17.25
2023-02-07T06:15:34.053Z,15.43
2023-02-07T06:17:06.837Z,16.65
2023-02-07T06:18:39.619Z,17.33
2023-02-07T06:20:13.048Z,15.55
2023-02-07T06:21:47.010Z,15.60
2023-02-07T06:23:22.904Z,14.80
2023-02-07T06:24:55.630Z,15.27
2023-02-07T06:26:28.310Z,15.85
2023-02-07T06:28:01.700Z,16.25
2023-02-07T06:29:35.762Z,16.40
2023-02-07T06:31:08.668Z,15.10
2023-02-07T06:32:41.638Z,17.17
2023-02-07T06:34:13.392Z,15.93
2023-02-07T06:35:47.324Z,15.88
2023-02-07T06:37:20.058Z,19.73
2023-02-07T06:38:55.371Z,16.20
2023-02-07T06:40:28.190Z,19.10
2023-02-07T06:42:00.883Z,15.20
2023-02-07T06:43:33.606Z,16.23
2023-02-07T06:45:08.439Z,19.48
2023-02-07T06:46:41.161Z,16.88
2023-02-07T06:48:13.919Z,16.73
2023-02-07T06:49:46.615Z,17.70
2023-02-07T06:51:19.316Z,19.35
2023-02-07T06:52:52.086Z,17.38
2023-02-07T06:54:24.875Z,18.02
2023-02-07T06:55:57.615Z,17.13
2023-02-07T06:57:30.319Z,17.30
2023-02-07T06:59:03.064Z,18.17
2023-02-07T07:00:37.113Z,18.85
2023-02-07T07:02:11.644Z,16.83
2023-02-07T07:03:44.329Z,18.10
2023-02-07T07:05:17.197Z,19.23
2023-02-07T07:06:49.903Z,16.30
2023-02-07T07:08:22.724Z,18.23
2023-02-07T07:09:55.422Z,20.70
2023-02-07T07:11:28.122Z,17.73
2023-02-07T07:13:00.850Z,17.45
2023-02-07T07:14:33.782Z,15.80
2023-02-07T07:16:08.376Z,18.20
2023-02-07T07:17:41.092Z,16.60
2023-02-07T07:19:13.857Z,19.20
2023-02-07T07:20:46.589Z,18.55
2023-02-07T07:22:21.194Z,18.00
2023-02-07T07:23:54.004Z,16.92
2023-02-07T07:25:26.726Z,17.52
2023-02-07T07:26:59.449Z,22.42
2023-02-07T07:28:32.197Z,18.00
2023-02-07T07:30:05.636Z,20.10
2023-02-07T07:31:39.685Z,16.55
2023-02-07T07:33:12.426Z,19.77
2023-02-07T07:34:45.210Z,19.02
2023-02-07T07:36:17.907Z,18.63
2023-02-07T07:37:50.587Z,18.05
2023-02-07T07:39:23.431Z,17.63
2023-02-07T07:40:56.133Z,21.05
2023-02-07T07:42:28.886Z,18.80
2023-02-07T07:44:01.636Z,20.52
2023-02-07T07:45:34.339Z,17.05
2023-02-07T07:47:08.437Z,17.70
2023-02-07T07:48:41.244Z,18.67
2023-02-07T07:50:14.030Z,17.15
2023-02-07T07:51:46.984Z,17.10
2023-02-07T07:53:20.592Z,18.48
2023-02-07T07:54:53.287Z,19.20
2023-02-07T07:56:26.004Z,21.33
2023-02-07T07:57:58.672Z,19.20
2023-02-07T07:59:31.566Z,19.13
2023-02-07T08:01:04.461Z,17.55
2023-02-07T08:02:38.533Z,18.23
2023-02-07T08:04:11.273Z,19.38
2023-02-07T08:05:45.440Z,18.65
2023-02-07T08:07:18.258Z,17.60
2023-02-07T08:08:51.083Z,20.42
2023-02-07T08:10:23.769Z,16.80
2023-02-07T08:11:56.619Z,17.10
2023-02-07T08:13:29.737Z,18.65
2023-02-07T08:15:07.667Z,19.70
2023-02-07T08:16:40.387Z,18.48
2023-02-07T08:18:14.467Z,17.35
2023-02-07T08:19:47.171Z,16.67
2023-02-07T08:21:20.110Z,19.58
2023-02-07T08:22:52.981Z,14.38
2023-02-07T08:24:27.611Z,16.13
2023-02-07T08:26:00.471Z,15.35
2023-02-07T08:27:33.257Z,16.45
2023-02-07T08:29:05.991Z,15.60
2023-02-07T08:30:39.055Z,16.75
2023-02-07T08:32:11.922Z,16.58
2023-02-07T08:33:46.122Z,20.83
2023-02-07T08:35:19.221Z,17.52
2023-02-07T08:36:51.928Z,14.88
2023-02-07T08:38:24.614Z,18.42
2023-02-07T08:39:58.046Z,17.40
2023-02-07T08:41:30.734Z,19.05
2023-02-07T08:43:06.608Z,18.77
2023-02-07T08:44:39.296Z,18.40
2023-02-07T08:46:12.133Z,18.15
2023-02-07T08:47:45.568Z,18.02
2023-02-07T08:49:19.701Z,15.65
2023-02-07T08:50:52.394Z,13.93
2023-02-07T08:52:25.211Z,16.65
2023-02-07T08:53:57.902Z,17.65
2023-02-07T08:55:30.777Z,16.65
2023-02-07T08:57:03.489Z,16.70
2023-02-07T08:58:36.209Z,16.05
2023-02-07T09:00:10.240Z,19.35
2023-02-07T09:01:42.971Z,19.35
2023-02-07T09:03:16.218Z,16.40
2023-02-07T09:04:50.361Z,15.75
2023-02-07T09:06:23.971Z,16.65
2023-02-07T09:07:56.656Z,17.83
2023-02-07T09:09:29.371Z,19.35
2023-02-07T09:11:02.231Z,16.58
2023-02-07T09:12:35.835Z,19.85
2023-02-07T09:14:08.572Z,18.27
2023-02-07T09:15:41.316Z,16.55
2023-02-07T09:17:14.059Z,16.52
2023-02-07T09:18:47.033Z,16.35
2023-02-07T09:20:21.391Z,21.67
2023-02-07T09:21:54.106Z,18.00
2023-02-07T09:23:27.591Z,17.45
2023-02-07T09:25:00.297Z,15.50
2023-02-07T09:26:35.145Z,17.70
2023-02-07T09:28:07.962Z,15.38
2023-02-07T09:29:40.811Z,13.43
2023-02-07T09:31:15.017Z,14.35
2023-02-07T09:32:47.794Z,18.13
2023-02-07T09:34:20.651Z,17.85
2023-02-07T09:35:55.112Z,16.30
2023-02-07T09:37:27.982Z,17.85
2023-02-07T09:39:02.399Z,14.75
2023-02-07T09:40:36.559Z,15.02
2023-02-07T09:42:20.157Z,15.93
2023-02-07T09:44:09.343Z,17.95
2023-02-07T09:45:46.213Z,16.95
2023-02-07T09:47:21.800Z,18.10
2023-02-07T09:48:59.874Z,15.00
2023-02-07T09:50:38.257Z,16.25
2023-02-07T09:52:17.813Z,15.48
2023-02-07T09:53:54.384Z,16.90
2023-02-07T09:55:32.478Z,17.65
2023-02-07T09:57:09.402Z,16.10
2023-02-07T09:58:46.140Z,15.20
2023-02-07T10:00:24.008Z,20.33
2023-02-07T10:02:01.183Z,16.02
2023-02-07T10:03:38.951Z,15.65
2023-02-07T10:05:17.843Z,16.40
2023-02-07T10:06:53.490Z,15.95
2023-02-07T10:08:39.752Z,14.50
2023-02-07T10:10:16.840Z,14.70
2023-02-07T10:11:53.855Z,14.57
2023-02-07T10:13:42.916Z,13.98
2023-02-07T10:15:31.617Z,15.18
2023-02-07T10:17:30.555Z,16.02
2023-02-07T10:19:16.046Z,20.92
2023-02-07T10:20:56.398Z,13.45
2023-02-07T10:22:36.746Z,14.15
2023-02-07T10:24:36.742Z,13.77
2023-02-07T10:26:17.258Z,14.35
2023-02-07T10:27:59.016Z,14.15
2023-02-07T10:29:48.052Z,14.75
2023-02-07T10:31:23.970Z,13.82
2023-02-07T10:33:03.967Z,13.07
2023-02-07T10:34:40.657Z,14.32
2023-02-07T10:36:15.686Z,14.73
2023-02-07T10:37:51.363Z,14.93
2023-02-07T10:39:27.896Z,15.68
2023-02-07T10:41:07.011Z,15.77
2023-02-07T10:42:41.221Z,17.17
2023-02-07T10:44:17.076Z,15.35
2023-02-07T10:45:54.325Z,16.63
2023-02-07T10:47:36.423Z,14.68
2023-02-07T10:49:24.793Z,15.70
2023-02-07T10:51:00.615Z,15.13
2023-02-07T10:52:37.591Z,16.40
2023-02-07T10:54:12.461Z,14.52
2023-02-07T10:55:47.405Z,11.90
2023-02-07T10:57:22.471Z,14.32
2023-02-07T10:58:57.361Z,15.10
2023-02-07T11:00:32.171Z,13.88
2023-02-07T11:02:41.058Z,14.95
2023-02-07T11:04:23.690Z,13.88
2023-02-07T11:05:58.760Z,14.10
2023-02-07T11:07:42.536Z,14.23
2023-02-07T11:09:23.000Z,13.95
2023-02-07T11:10:57.288Z,13.93
2023-02-07T11:12:31.317Z,20.45
2023-02-07T11:14:06.068Z,16.52
2023-02-07T11:15:47.625Z,14.80
2023-02-07T11:17:22.438Z,12.70
2023-02-07T11:18:59.308Z,18.42
2023-02-07T11:20:36.628Z,15.48
2023-02-07T11:22:15.278Z,13.70
2023-02-07T11:23:49.152Z,13.02
2023-02-07T11:25:29.165Z,12.95
2023-02-07T11:27:06.495Z,14.25
2023-02-07T11:28:41.704Z,14.95
2023-02-07T11:30:19.163Z,16.35
2023-02-07T11:31:54.274Z,14.55
2023-02-07T11:33:29.042Z,15.52
2023-02-07T11:35:06.288Z,15.02
2023-02-07T11:36:39.060Z,17.33
2023-02-07T11:38:14.804Z,13.95
2023-02-07T11:39:48.376Z,15.05
2023-02-07T11:41:24.437Z,13.57
2023-02-07T11:43:03.482Z,13.70
2023-02-07T11:44:43.236Z,11.35
2023-02-07T11:46:16.069Z,14.20
2023-02-07T11:47:54.023Z,12.68
2023-02-07T11:49:29.638Z,14.18
2023-02-07T11:51:04.216Z,13.27
2023-02-07T11:52:40.561Z,13.90
2023-02-07T11:54:15.214Z,14.50
2023-02-07T11:55:47.980Z,12.65
2023-02-07T11:57:22.381Z,13.48
2023-02-07T11:58:56.611Z,15.27
2023-02-07T12:00:35.859Z,13.57
2023-02-07T12:02:18.293Z,13.88
2023-02-07T12:03:58.573Z,13.95
2023-02-07T12:05:35.492Z,14.23
2023-02-07T12:07:13.080Z,13.13
2023-02-07T12:08:46.722Z,16.75
2023-02-07T12:10:23.689Z,13.23
2023-02-07T12:11:58.582Z,13.15
2023-02-07T12:13:36.284Z,12.25
2023-02-07T12:15:15.931Z,12.32
2023-02-07T12:16:53.204Z,15.65
2023-02-07T12:18:30.257Z,15.45
2023-02-07T12:20:09.836Z,13.40
2023-02-07T12:21:52.381Z,12.10
2023-02-07T12:23:42.359Z,12.32
2023-02-07T12:25:21.984Z,10.40
2023-02-07T12:27:00.533Z,13.30
2023-02-07T12:28:40.277Z,12.95
2023-02-07T12:30:21.260Z,12.48
2023-02-07T12:32:04.691Z,13.45
2023-02-07T12:33:44.239Z,12.27
2023-02-07T12:35:22.729Z,15.13
2023-02-07T12:37:01.104Z,12.75
2023-02-07T12:38:39.098Z,15.02
2023-02-07T12:40:19.295Z,14.98
2023-02-07T12:41:58.125Z,13.10
2023-02-07T12:43:33.840Z,12.00
2023-02-07T12:45:08.331Z,18.77
2023-02-07T12:46:50.910Z,13.43
2023-02-07T12:48:38.530Z,15.45
2023-02-07T12:50:21.599Z,12.02
2023-02-07T12:52:02.629Z,17.05
2023-02-07T12:53:46.755Z,12.80
2023-02-07T12:55:31.814Z,11.10
2023-02-07T12:57:13.075Z,24.67
2023-02-07T12:58:57.443Z,15.15
2023-02-07T13:00:36.717Z,12.52
2023-02-07T13:13:41.991Z,11.30
2023-02-07T13:15:23.170Z,10.77
2023-02-07T13:17:08.679Z,13.63
2023-02-07T13:18:47.213Z,12.48
2023-02-07T13:20:29.331Z,11.15
2023-02-07T13:22:07.101Z,15.23
2023-02-07T13:23:44.614Z,13.00
2023-02-07T13:25:22.762Z,14.05
2023-02-07T13:26:59.178Z,13.68
2023-02-07T13:28:41.240Z,13.88
2023-02-07T13:30:17.168Z,14.70
2023-02-07T13:31:53.854Z,14.13
2023-02-07T13:33:33.726Z,13.63
2023-02-07T13:35:09.136Z,14.80
2023-02-07T13:36:44.168Z,9.75
2023-02-07T13:38:23.657Z,12.57
2023-02-07T13:40:02.502Z,12.60
2023-02-07T13:41:44.445Z,13.40
2023-02-07T13:43:21.564Z,12.82
2023-02-07T13:45:05.344Z,10.27
2023-02-07T13:47:11.992Z,13.07
2023-02-07T13:48:51.787Z,11.57
2023-02-07T13:50:43.232Z,9.55
2023-02-07T13:52:23.272Z,12.65
2023-02-07T13:54:06.626Z,13.07
2023-02-07T13:55:42.315Z,11.70
2023-02-07T13:57:41.195Z,14.70
2023-02-07T13:59:39.187Z,12.75
2023-02-07T14:01:18.107Z,13.27
2023-02-07T14:02:53.846Z,12.60
2023-02-07T14:04:46.469Z,13.00
2023-02-07T14:06:24.311Z,12.75
2023-02-07T14:08:00.668Z,10.30
2023-02-07T14:09:36.786Z,19.27
2023-02-07T14:11:26.484Z,10.63
2023-02-07T14:12:59.940Z,12.10
2023-02-07T14:14:34.398Z,12.40
2023-02-07T14:16:10.235Z,12.25
2023-02-07T14:18:00.975Z,13.80
2023-02-07T14:19:52.230Z,14.82
2023-02-07T14:21:41.984Z,12.20
2023-02-07T14:23:17.155Z,11.63
2023-02-07T14:25:06.573Z,11.18
2023-02-07T14:26:58.155Z,10.88
2023-02-07T14:28:36.035Z,11.88
2023-02-07T14:30:20.421Z,12.05
2023-02-07T14:31:56.841Z,10.73
2023-02-07T14:33:36.711Z,10.18
2023-02-07T14:35:31.628Z,10.57
2023-02-07T14:37:22.184Z,9.82
2023-02-07T14:39:06.782Z,10.48
2023-02-07T14:41:01.773Z,10.30
2023-02-07T14:42:38.169Z,10.45
2023-02-07T14:44:24.853Z,10.55
2023-02-07T14:46:08.379Z,10.88
2023-02-07T14:47:41.250Z,10.00
2023-02-07T14:49:21.447Z,9.85
2023-02-07T14:50:55.373Z,9.23
2023-02-07T14:52:31.061Z,8.30
2023-02-07T14:54:07.867Z,9.20
2023-02-07T14:55:48.807Z,9.52
2023-02-07T14:57:33.676Z,9.52
2023-02-07T14:59:09.858Z,11.35
2023-02-07T15:00:50.073Z,11.40
2023-02-07T15:02:34.892Z,10.30
2023-02-07T15:04:10.710Z,9.88
2023-02-07T15:05:52.035Z,10.82
2023-02-07T15:07:24.788Z,10.07
2023-02-07T15:08:58.967Z,13.23
2023-02-07T15:10:33.814Z,11.13
2023-02-07T15:12:22.357Z,10.98
2023-02-07T15:14:02.891Z,11.73
2023-02-07T15:15:47.334Z,12.05
2023-02-07T15:17:22.310Z,10.32
2023-02-07T15:18:59.910Z,9.45
2023-02-07T15:20:35.241Z,10.18
2023-02-07T15:22:20.586Z,8.70
2023-02-07T15:24:01.343Z,9.05
2023-02-07T15:25:34.939Z,15.30
2023-02-07T15:27:19.379Z,9.98
2023-02-07T15:28:59.646Z,8.38
2023-02-07T15:30:32.938Z,8.95
2023-02-07T15:32:15.907Z,8.82
2023-02-07T15:33:53.028Z,10.10
2023-02-07T15:35:27.713Z,8.60
2023-02-07T15:37:12.548Z,9.65
2023-02-07T15:38:47.672Z,8.57
2023-02-07T15:40:24.933Z,9.35
2023-02-07T15:41:59.248Z,8.95
2023-02-07T15:43:33.722Z,9.93
2023-02-07T15:45:19.590Z,9.32
2023-02-07T15:46:58.550Z,8.45
2023-02-07T15:48:31.685Z,9.15
2023-02-07T15:50:07.787Z,8.80
2023-02-07T15:51:42.345Z,10.55
2023-02-07T15:53:22.023Z,9.82
2023-02-07T15:54:57.313Z,10.25
2023-02-07T15:56:31.658Z,8.80
2023-02-07T15:58:06.239Z,10.52
2023-02-07T15:59:42.336Z,10.68
2023-02-07T16:01:18.329Z,11.13
2023-02-07T16:02:58.807Z,10.88
2023-02-07T16:04:33.650Z,10.40
2023-02-07T16:06:13.886Z,11.13
2023-02-07T16:07:47.714Z,10.27
2023-02-07T16:09:36.197Z,13.73
2023-02-07T16:11:35.462Z,12.73
2023-02-07T16:13:17.730Z,13.63
2023-02-07T16:14:50.598Z,13.40
2023-02-07T16:16:26.981Z,12.75
2023-02-07T16:18:00.721Z,13.60
2023-02-07T16:19:34.025Z,18.73
2023-02-07T16:21:11.190Z,21.13
2023-02-07T16:22:45.503Z,16.88
2023-02-07T16:24:20.721Z,16.67
2023-02-07T16:25:53.459Z,16.00
2023-02-07T16:27:31.636Z,16.23
2023-02-07T16:29:05.857Z,14.73
2023-02-07T16:30:39.359Z,16.98
2023-02-07T16:32:13.754Z,16.17
2023-02-07T16:33:46.445Z,17.23
2023-02-07T16:35:23.698Z,13.93
2023-02-07T16:36:57.203Z,17.35
2023-02-07T16:38:29.874Z,15.45
2023-02-07T16:40:02.658Z,17.65
2023-02-07T16:41:39.358Z,17.85
2023-02-07T16:43:33.644Z,17.83
2023-02-07T16:45:06.919Z,18.83
2023-02-07T16:46:39.609Z,17.38
2023-02-07T16:48:15.738Z,19.13
2023-02-07T16:49:48.469Z,19.33
2023-02-07T16:51:21.285Z,17.88
2023-02-07T16:52:56.841Z,18.45
2023-02-07T16:54:29.548Z,17.50
2023-02-07T16:56:04.358Z,14.88
2023-02-07T16:57:37.820Z,16.48
2023-02-07T16:59:15.228Z,16.25
2023-02-07T17:00:47.924Z,15.52
2023-02-07T17:02:20.685Z,16.38
2023-02-07T17:03:53.436Z,16.58
2023-02-07T17:05:26.154Z,17.30
2023-02-07T17:06:58.825Z,17.25
2023-02-07T17:08:31.603Z,17.98
2023-02-07T17:10:11.606Z,15.93
2023-02-07T17:11:44.389Z,20.00
2023-02-07T17:13:19.302Z,15.93
2023-02-07T17:14:53.539Z,14.77
2023-02-07T17:16:28.122Z,14.80
2023-02-07T17:18:00.834Z,16.80
2023-02-07T17:19:33.683Z,15.48
2023-02-07T17:21:08.720Z,15.45
2023-02-07T17:22:41.410Z,15.23
2023-02-07T17:24:14.706Z,13.60
2023-02-07T17:25:48.172Z,13.85
2023-02-07T17:27:20.875Z,15.77
2023-02-07T17:28:54.868Z,13.40
2023-02-07T17:30:31.637Z,15.02
2023-02-07T17:32:04.430Z,14.80
2023-02-07T17:33:37.178Z,14.70
2023-02-07T17:35:09.902Z,12.63
2023-02-07T17:36:47.473Z,15.32
2023-02-07T17:38:20.163Z,13.82
2023-02-07T17:39:52.837Z,13.85
2023-02-07T17:41:25.932Z,13.98
2023-02-07T17:42:59.563Z,12.80
2023-02-07T17:44:34.030Z,16.73
2023-02-07T17:46:14.657Z,16.50
2023-02-07T17:47:47.411Z,29.45
2023-02-07T17:49:20.367Z,17.05
2023-02-07T17:50:55.940Z,15.32
2023-02-07T17:52:29.544Z,13.73
2023-02-07T17:54:02.233Z,15.35
2023-02-07T17:55:36.296Z,14.02
2023-02-07T17:57:11.326Z,15.55
2023-02-07T17:58:44.019Z,16.02
2023-02-07T18:00:19.523Z,16.65
2023-02-07T18:01:53.968Z,17.10
2023-02-07T18:03:26.658Z,17.00
2023-02-07T18:04:59.342Z,14.63
2023-02-07T18:06:32.315Z,16.70
2023-02-07T18:08:05.442Z,18.10
2023-02-07T18:09:38.134Z,16.83
2023-02-07T18:11:14.104Z,17.05
2023-02-07T18:12:47.398Z,18.30
2023-02-07T18:14:20.252Z,18.13
2023-02-07T18:15:52.983Z,21.13
2023-02-07T18:17:27.079Z,17.25
2023-02-07T18:18:59.798Z,14.82
2023-02-07T18:20:34.543Z,15.60
2023-02-07T18:22:07.304Z,15.65
2023-02-07T18:23:40.109Z,13.38
2023-02-07T18:25:12.808Z,16.42
2023-02-07T18:26:46.333Z,17.42
2023-02-07T18:28:19.445Z,15.45
2023-02-07T18:29:52.147Z,17.65
2023-02-07T18:31:25.918Z,20.13
2023-02-07T18:33:00.927Z,20.58
2023-02-07T18:34:34.523Z,17.98
2023-02-07T18:36:08.726Z,22.52
2023-02-07T18:37:41.602Z,20.77
2023-02-07T18:39:14.285Z,19.90
2023-02-07T18:40:46.966Z,16.38
2023-02-07T18:42:21.606Z,16.63
2023-02-07T18:43:54.299Z,16.17
2023-02-07T18:45:27.031Z,16.35
2023-02-07T18:46:59.892Z,15.45
2023-02-07T18:48:33.908Z,16.25
2023-02-07T18:50:07.286Z,15.35
2023-02-07T18:51:40.754Z,14.65
2023-02-07T18:53:13.749Z,13.90
2023-02-07T18:54:46.585Z,17.05
2023-02-07T18:56:21.541Z,16.17
2023-02-07T18:57:56.168Z,16.08
2023-02-07T18:59:30.775Z,15.95
2023-02-07T19:01:05.223Z,16.10
2023-02-07T19:02:38.285Z,16.58
2023-02-07T19:04:12.334Z,18.73
2023-02-07T19:05:45.629Z,16.20
2023-02-07T19:07:18.415Z,15.15
2023-02-07T19:08:51.413Z,14.93
2023-02-07T19:10:24.424Z,13.75
2023-02-07T19:11:58.096Z,15.07
2023-02-07T19:13:31.425Z,13.73
2023-02-07T19:15:04.356Z,15.20
2023-02-07T19:16:37.043Z,13.30
2023-02-07T19:18:09.740Z,16.35
2023-02-07T19:19:44.087Z,14.18
2023-02-07T19:21:21.494Z,14.90
2023-02-07T19:22:54.212Z,13.57
2023-02-07T19:24:28.045Z,12.70
2023-02-07T19:26:00.763Z,13.30
2023-02-07T19:27:33.772Z,12.73
2023-02-07T19:29:06.584Z,14.60
2023-02-07T19:30:40.658Z,15.45
2023-02-07T19:32:13.686Z,13.43
2023-02-07T19:33:47.922Z,15.02
2023-02-07T19:35:21.962Z,14.23
2023-02-07T19:36:54.771Z,12.93
2023-02-07T19:38:27.502Z,13.98
2023-02-07T19:40:00.224Z,12.65
2023-02-07T19:41:32.985Z,14.68
2023-02-07T19:43:05.670Z,12.98
2023-02-07T19:44:38.441Z,16.02
2023-02-07T19:46:11.258Z,14.10
2023-02-07T19:47:44.060Z,14.00
2023-02-07T19:49:17.168Z,15.18
2023-02-07T19:50:58.550Z,13.57
2023-02-07T19:52:31.243Z,14.75
2023-02-07T19:54:04.051Z,14.32
2023-02-07T19:55:39.041Z,16.02
2023-02-07T19:57:12.067Z,17.30
2023-02-07T19:58:46.974Z,12.82
2023-02-07T20:00:20.161Z,13.63
2023-02-07T20:01:53.684Z,12.93
2023-02-07T20:03:26.936Z,13.52
2023-02-07T20:04:59.771Z,12.95
2023-02-07T20:06:35.439Z,12.13
2023-02-07T20:08:08.104Z,14.00
2023-02-07T20:09:40.875Z,12.38
2023-02-07T20:11:15.862Z,12.85
2023-02-07T20:12:49.207Z,15.20
2023-02-07T20:14:22.079Z,12.93
2023-02-07T20:15:54.816Z,14.05
2023-02-07T20:17:28.001Z,11.40
2023-02-07T20:19:01.225Z,16.00
2023-02-07T20:20:34.006Z,11.90
2023-02-07T20:22:08.052Z,11.88
2023-02-07T20:23:41.953Z,14.05
2023-02-07T20:25:14.743Z,14.60
2023-02-07T20:26:47.554Z,12.90
2023-02-07T20:28:21.653Z,14.50
2023-02-07T20:29:54.682Z,12.88
2023-02-07T20:31:27.525Z,14.38
2023-02-07T20:33:00.283Z,12.10
2023-02-07T20:34:33.022Z,13.68
2023-02-07T20:36:06.131Z,11.50
2023-02-07T20:37:40.152Z,17.25
2023-02-07T20:39:15.597Z,13.25
2023-02-07T20:40:48.305Z,13.05
2023-02-07T20:42:21.010Z,12.63
2023-02-07T20:43:53.686Z,12.82
2023-02-07T20:45:26.390Z,9.98
2023-02-07T20:47:00.460Z,12.18
2023-02-07T20:48:32.447Z,9.40
2023-02-07T20:50:06.187Z,12.02
2023-02-07T20:51:39.164Z,13.35
2023-02-07T20:53:13.183Z,10.25
2023-02-07T20:54:45.907Z,12.10
2023-02-07T20:56:18.958Z,11.73
2023-02-07T20:57:51.986Z,12.45
2023-02-07T20:59:26.632Z,15.07
2023-02-07T21:00:59.372Z,14.07